createdAt,value
2018-08-24T00:00:11.528Z,100980.86
2018-08-24T00:02:40.480Z,100979.36
2018-08-24T00:05:09.369Z,100979.97
2018-08-24T00:07:38.270Z,100978.63
2018-08-24T00:10:07.260Z,100974.67
2018-08-24T00:12:36.197Z,100980.84
2018-08-24T00:15:05.318Z,100975.53
2018-08-24T00:17:34.264Z,100977.64
2018-08-24T00:20:03.216Z,100973.21
2018-08-24T00:22:32.101Z,100965.58
2018-08-24T00:25:01.045Z,100961.23
2018-08-24T00:27:29.960Z,100959.39
2018-08-24T00:29:58.870Z,100938.20
2018-08-24T00:32:27.776Z,100935.63
2018-08-24T00:34:56.738Z,100934.40
2018-08-24T00:37:25.708Z,100923.64
2018-08-24T00:39:54.616Z,100928.84
2018-08-24T00:42:23.548Z,100926.00
2018-08-24T00:44:52.519Z,100930.80
2018-08-24T00:47:21.418Z,100933.88
2018-08-24T00:49:50.360Z,100944.61
2018-08-24T00:52:19.863Z,100936.56
2018-08-24T00:54:48.823Z,100940.41
2018-08-24T00:57:17.735Z,100943.48
2018-08-24T00:59:46.633Z,100938.34
2018-08-24T01:02:15.607Z,100937.69
2018-08-24T01:04:44.527Z,100940.52
2018-08-24T01:07:14.409Z,100945.18
2018-08-24T01:09:43.717Z,100940.41
2018-08-24T01:12:14.758Z,100934.75
2018-08-24T01:14:48.772Z,100930.07
2018-08-24T01:17:22.884Z,100924.36
2018-08-24T01:19:51.839Z,100923.03
2018-08-24T01:22:20.783Z,100924.23
2018-08-24T01:24:49.676Z,100923.88
2018-08-24T01:27:18.653Z,100933.66
2018-08-24T01:29:47.572Z,100929.20
2018-08-24T01:32:16.469Z,100930.05
2018-08-24T01:34:45.419Z,100925.78
2018-08-24T01:37:14.357Z,100921.81
2018-08-24T01:39:43.271Z,100918.75
2018-08-24T01:42:12.183Z,100920.30
2018-08-24T01:44:41.140Z,100920.83
2018-08-24T01:47:10.098Z,100919.87
2018-08-24T01:49:39.032Z,100926.28
2018-08-24T01:52:08.025Z,100919.57
2018-08-24T01:54:36.928Z,100930.07
2018-08-24T01:57:21.953Z,100928.32
2018-08-24T01:59:50.900Z,100931.00
2018-08-24T02:02:19.882Z,100926.43
2018-08-24T02:04:48.794Z,100929.77
2018-08-24T02:07:17.783Z,100929.30
2018-08-24T02:09:46.760Z,100930.77
2018-08-24T02:12:20.919Z,100934.48
2018-08-24T02:14:49.892Z,100936.95
2018-08-24T02:17:24.026Z,100929.57
2018-08-24T02:19:58.253Z,100936.84
2018-08-24T02:22:27.150Z,100931.90
2018-08-24T02:25:01.600Z,100949.92
2018-08-24T02:27:30.546Z,100948.70
2018-08-24T02:29:59.458Z,100951.30
2018-08-24T02:32:28.327Z,100958.05
2018-08-24T02:34:59.692Z,100965.71
2018-08-24T02:37:29.686Z,100969.51
2018-08-24T02:39:58.564Z,100974.46
2018-08-24T02:42:28.584Z,100970.02
2018-08-24T02:44:57.520Z,100965.33
2018-08-24T02:47:26.374Z,100970.02
2018-08-24T02:49:55.640Z,100985.42
2018-08-24T02:52:24.515Z,100971.60
2018-08-24T02:54:53.403Z,100971.98
2018-08-24T02:57:22.412Z,100968.42
2018-08-24T02:59:51.308Z,100966.19
2018-08-24T03:02:20.257Z,100975.78
2018-08-24T03:04:49.147Z,100977.75
2018-08-24T03:07:18.032Z,100979.48
2018-08-24T03:09:46.942Z,100979.84
2018-08-24T03:12:15.834Z,100981.08
2018-08-24T03:14:44.746Z,100986.63
2018-08-24T03:17:18.864Z,100985.02
2018-08-24T03:19:47.924Z,100991.42
2018-08-24T03:22:22.866Z,100995.64
2018-08-24T03:24:51.770Z,100978.70
2018-08-24T03:27:20.746Z,100999.20
2018-08-24T03:29:49.699Z,100995.98
2018-08-24T03:32:24.899Z,100998.17
2018-08-24T03:34:53.777Z,100997.32
2018-08-24T03:37:22.688Z,100998.80
2018-08-24T03:39:51.619Z,101001.05
2018-08-24T03:42:20.555Z,100994.67
2018-08-24T03:44:49.585Z,100999.69
2018-08-24T03:47:18.512Z,101006.48
2018-08-24T03:49:47.411Z,101007.46
2018-08-24T03:52:16.298Z,101002.90
2018-08-24T03:54:50.941Z,100993.93
2018-08-24T03:57:25.483Z,100992.93
2018-08-24T03:59:54.367Z,101001.20
2018-08-24T04:02:23.262Z,100997.66
2018-08-24T04:04:52.326Z,100996.08
2018-08-24T04:07:22.256Z,101003.72
2018-08-24T04:09:51.488Z,101000.53
2018-08-24T04:12:20.794Z,101003.98
2018-08-24T04:14:50.037Z,101015.55
2018-08-24T04:17:24.681Z,101013.35
2018-08-24T04:19:54.144Z,101015.11
2018-08-24T04:22:23.349Z,101011.84
2018-08-24T04:24:52.680Z,101013.34
2018-08-24T04:27:22.029Z,101007.03
2018-08-24T04:29:51.293Z,101020.36
2018-08-24T04:32:21.585Z,101019.44
2018-08-24T04:34:51.153Z,101021.03
2018-08-24T04:37:21.249Z,101027.41
2018-08-24T04:39:50.528Z,101032.34
2018-08-24T04:42:19.820Z,101027.18
2018-08-24T04:44:49.022Z,101037.52
2018-08-24T04:47:18.357Z,101040.84
2018-08-24T04:49:47.755Z,101043.05
2018-08-24T04:52:17.056Z,101046.16
2018-08-24T04:54:46.436Z,101052.52
2018-08-24T04:57:15.620Z,101050.30
2018-08-24T04:59:44.934Z,101055.45
2018-08-24T05:02:14.078Z,101060.52
2018-08-24T05:04:43.354Z,101058.20
2018-08-24T05:07:12.607Z,101063.48
2018-08-24T05:09:52.193Z,101065.65
2018-08-24T05:12:21.404Z,101062.90
2018-08-24T05:14:50.811Z,101069.83
2018-08-24T05:17:20.881Z,101076.59
2018-08-24T05:19:53.810Z,101074.74
2018-08-24T05:22:23.189Z,101082.28
2018-08-24T05:24:52.598Z,101084.77
2018-08-24T05:27:21.718Z,101091.76
2018-08-24T05:29:51.138Z,101092.02
2018-08-24T05:32:21.486Z,101098.72
2018-08-24T05:34:50.832Z,101097.17
2018-08-24T05:37:20.287Z,101110.00
2018-08-24T05:39:49.596Z,101109.84
2018-08-24T05:42:20.154Z,101110.77
2018-08-24T05:44:49.425Z,101115.16
2018-08-24T05:47:19.271Z,101113.38
2018-08-24T05:49:48.516Z,101107.60
2018-08-24T05:52:17.932Z,101112.23
2018-08-24T05:54:47.287Z,101105.64
2018-08-24T05:57:16.751Z,101104.56
2018-08-24T05:59:46.021Z,101110.91
2018-08-24T06:02:15.354Z,101103.04
2018-08-24T06:04:44.645Z,101111.44
2018-08-24T06:07:13.944Z,101116.52
2018-08-24T06:09:43.237Z,101114.08
2018-08-24T06:12:12.598Z,101112.98
2018-08-24T06:14:41.955Z,101116.39
2018-08-24T06:17:16.360Z,101111.11
2018-08-24T06:19:45.703Z,101111.13
2018-08-24T06:22:14.925Z,101116.25
2018-08-24T06:24:44.155Z,101121.24
2018-08-24T06:27:13.395Z,101118.72
2018-08-24T06:29:42.671Z,101105.80
2018-08-24T06:32:11.999Z,101121.47
2018-08-24T06:34:44.885Z,101117.48
2018-08-24T06:37:15.239Z,101123.64
2018-08-24T06:39:44.444Z,101124.03
2018-08-24T06:42:13.662Z,101131.77
2018-08-24T06:44:42.995Z,101135.52
2018-08-24T06:47:12.274Z,101139.25
2018-08-24T06:49:41.562Z,101140.23
2018-08-24T06:52:10.788Z,101143.95
2018-08-24T06:54:40.240Z,101149.07
2018-08-24T06:57:09.570Z,101140.48
2018-08-24T06:59:38.861Z,101147.80
2018-08-24T07:02:08.272Z,101143.38
2018-08-24T07:04:37.546Z,101154.98
2018-08-24T07:07:06.804Z,101150.49
2018-08-24T07:09:38.365Z,101162.22
2018-08-24T07:12:11.079Z,101152.30
2018-08-24T07:14:40.877Z,101167.97
2018-08-24T07:17:11.092Z,101162.73
2018-08-24T07:19:40.389Z,101161.06
2018-08-24T07:22:15.352Z,101169.22
2018-08-24T07:24:44.735Z,101168.34
2018-08-24T07:27:14.217Z,101172.26
2018-08-24T07:29:43.564Z,101169.41
2018-08-24T07:32:12.738Z,101172.89
2018-08-24T07:34:42.047Z,101174.83
2018-08-24T07:37:11.349Z,101174.00
2018-08-24T07:39:46.071Z,101171.79
2018-08-24T07:42:20.813Z,101176.40
2018-08-24T07:44:54.061Z,101184.41
2018-08-24T07:47:24.127Z,101189.31
2018-08-24T07:49:53.798Z,101196.05
2018-08-24T07:52:22.998Z,101199.18
2018-08-24T07:54:52.307Z,101199.09
2018-08-24T07:57:21.643Z,101197.81
2018-08-24T07:59:50.977Z,101188.39
2018-08-24T08:02:24.576Z,101199.27
2018-08-24T08:04:53.932Z,101203.69
2018-08-24T08:07:23.229Z,101208.80
2018-08-24T08:09:52.630Z,101206.75
2018-08-24T08:12:21.849Z,101213.09
2018-08-24T08:14:56.472Z,101212.69
2018-08-24T08:17:25.820Z,101205.20
2018-08-24T08:19:54.949Z,101205.53
2018-08-24T08:22:24.297Z,101203.79
2018-08-24T08:24:53.560Z,101207.00
2018-08-24T08:27:22.992Z,101211.83
2018-08-24T08:29:57.586Z,101217.06
2018-08-24T08:32:27.196Z,101216.98
2018-08-24T08:34:56.430Z,101206.84
2018-08-24T08:37:25.728Z,101210.14
2018-08-24T08:40:00.088Z,101214.91
2018-08-24T08:42:29.625Z,101208.54
2018-08-24T08:44:59.272Z,101221.02
2018-08-24T08:47:28.539Z,101219.87
2018-08-24T08:49:57.690Z,101227.09
2018-08-24T08:52:26.944Z,101218.17
2018-08-24T08:54:57.438Z,101228.75
2018-08-24T08:57:26.820Z,101236.00
2018-08-24T08:59:56.072Z,101233.09
2018-08-24T09:02:25.246Z,101233.93
2018-08-24T09:04:54.502Z,101238.04
2018-08-24T09:07:23.974Z,101241.15
2018-08-24T09:09:53.177Z,101241.50
2018-08-24T09:12:22.394Z,101247.30
2018-08-24T09:14:51.675Z,101250.63
2018-08-24T09:17:26.248Z,101244.11
2018-08-24T09:20:00.555Z,101253.02
2018-08-24T09:22:34.996Z,101243.86
2018-08-24T09:25:09.514Z,101252.45
2018-08-24T09:28:41.494Z,101256.31
2018-08-24T09:31:14.713Z,101255.71
2018-08-24T09:33:43.809Z,101257.00
2018-08-24T09:36:19.569Z,101259.22
2018-08-24T09:38:49.764Z,101267.87
2018-08-24T09:41:19.228Z,101263.06
2018-08-24T09:43:53.799Z,101260.13
2018-08-24T09:47:25.818Z,101253.59
2018-08-24T09:49:55.039Z,101255.33
2018-08-24T09:52:27.034Z,101260.29
2018-08-24T09:54:56.955Z,101261.51
2018-08-24T09:57:25.941Z,101261.66
2018-08-24T09:59:54.881Z,101255.56
2018-08-24T10:02:25.990Z,101257.91
2018-08-24T10:05:00.162Z,101260.63
2018-08-24T10:07:38.275Z,101263.45
2018-08-24T10:10:07.547Z,101264.72
2018-08-24T10:12:37.599Z,101262.75
2018-08-24T10:15:08.186Z,101266.46
2018-08-24T10:17:37.177Z,101265.58
2018-08-24T10:20:06.841Z,101266.68
2018-08-24T10:22:37.846Z,101266.68
2018-08-24T10:25:12.461Z,101272.63
2018-08-24T10:27:46.811Z,101276.47
2018-08-24T10:30:15.762Z,101266.58
2018-08-24T10:32:44.691Z,101268.68
2018-08-24T10:35:13.633Z,101264.37
2018-08-24T10:37:42.610Z,101270.39
2018-08-24T10:40:11.524Z,101273.11
2018-08-24T10:42:41.590Z,101263.61
2018-08-24T10:45:10.576Z,101261.64
2018-08-24T10:47:39.480Z,101260.02
2018-08-24T10:50:08.333Z,101264.83
2018-08-24T10:52:37.407Z,101271.87
2018-08-24T10:55:09.475Z,101266.20
2018-08-24T10:57:38.413Z,101261.51
2018-08-24T11:00:07.331Z,101269.42
2018-08-24T11:02:36.272Z,101273.72
2018-08-24T11:05:05.193Z,101271.25
2018-08-24T11:07:35.978Z,101271.39
2018-08-24T11:10:05.170Z,101281.14
2018-08-24T11:12:34.224Z,101276.45
2018-08-24T11:15:04.592Z,101282.38
2018-08-24T11:18:35.943Z,101273.59
2018-08-24T11:21:04.888Z,101286.45
2018-08-24T11:23:33.920Z,101283.73
2018-08-24T11:26:03.006Z,101280.28
2018-08-24T11:28:31.919Z,101278.66
2018-08-24T11:31:00.958Z,101279.87
2018-08-24T11:33:29.912Z,101282.10
2018-08-24T11:35:58.900Z,101278.53
2018-08-24T11:38:27.775Z,101284.09
2018-08-24T11:40:56.677Z,101278.42
2018-08-24T11:43:25.573Z,101274.59
2018-08-24T11:45:59.946Z,101278.02
2018-08-24T11:48:29.149Z,101280.52
2018-08-24T11:50:59.209Z,101281.25
2018-08-24T11:53:28.213Z,101264.23
2018-08-24T11:55:57.159Z,101274.85
2018-08-24T11:58:26.071Z,101277.92
2018-08-24T12:00:54.983Z,101275.58
2018-08-24T12:03:23.900Z,101274.22
2018-08-24T12:05:53.550Z,101272.50
2018-08-24T12:08:22.566Z,101281.14
2018-08-24T12:10:51.473Z,101281.52
2018-08-24T12:13:20.368Z,101283.23
2018-08-24T12:15:49.291Z,101287.80
2018-08-24T12:18:18.349Z,101284.23
2018-08-24T12:20:47.241Z,101275.70
2018-08-24T12:23:16.290Z,101277.57
2018-08-24T12:25:45.195Z,101276.33
2018-08-24T12:28:14.173Z,101280.64
2018-08-24T12:30:43.368Z,101283.12
2018-08-24T12:33:12.297Z,101281.64
2018-08-24T12:35:41.191Z,101275.97
2018-08-24T12:38:10.206Z,101270.88
2018-08-24T12:40:39.486Z,101278.53
2018-08-24T12:43:08.465Z,101286.69
2018-08-24T12:45:37.384Z,101285.48
2018-08-24T12:48:06.331Z,101287.58
2018-08-24T12:50:35.243Z,101286.84
2018-08-24T12:53:04.178Z,101272.14
2018-08-24T12:55:33.100Z,101286.34
2018-08-24T12:58:01.992Z,101286.06
2018-08-24T13:00:31.216Z,101281.99
2018-08-24T13:03:00.193Z,101284.83
2018-08-24T13:06:32.200Z,101284.48
2018-08-24T13:09:01.156Z,101276.33
2018-08-24T13:11:35.778Z,101278.54
2018-08-24T13:14:05.088Z,101280.91
2018-08-24T13:16:34.322Z,101276.83
2018-08-24T13:19:03.316Z,101281.14
2018-08-24T13:21:32.424Z,101270.66
2018-08-24T13:24:01.611Z,101274.11
2018-08-24T13:26:30.786Z,101266.70
2018-08-24T13:28:59.683Z,101267.33
2018-08-24T13:31:28.655Z,101262.01
2018-08-24T13:33:57.890Z,101260.29
2018-08-24T13:36:27.145Z,101261.27
2018-08-24T13:38:56.325Z,101246.09
2018-08-24T13:41:25.420Z,101261.27
2018-08-24T13:43:54.593Z,101259.30
2018-08-24T13:46:24.057Z,101257.80
2018-08-24T13:48:54.013Z,101255.58
2018-08-24T13:51:22.940Z,101249.42
2018-08-24T13:53:52.129Z,101258.02
2018-08-24T13:56:21.110Z,101252.73
2018-08-24T13:58:50.086Z,101248.05
2018-08-24T14:01:19.014Z,101248.18
2018-08-24T14:03:47.953Z,101243.98
2018-08-24T14:06:17.018Z,101248.31
2018-08-24T14:08:46.183Z,101240.52
2018-08-24T14:11:15.100Z,101239.66
2018-08-24T14:13:44.310Z,101238.19
2018-08-24T14:16:13.488Z,101244.47
2018-08-24T14:18:42.644Z,101239.55
2018-08-24T14:21:11.797Z,101234.84
2018-08-24T14:23:40.976Z,101243.85
2018-08-24T14:26:09.936Z,101234.97
2018-08-24T14:28:38.808Z,101236.33
2018-08-24T14:31:08.337Z,101229.29
2018-08-24T14:33:37.529Z,101226.81
2018-08-24T14:36:06.972Z,101225.33
2018-08-24T14:38:37.365Z,101226.18
2018-08-24T14:41:06.323Z,101227.93
2018-08-24T14:43:35.326Z,101224.00
2018-08-24T14:46:04.318Z,101220.78
2018-08-24T14:48:33.583Z,101220.16
2018-08-24T14:51:02.847Z,101214.73
2018-08-24T14:53:33.201Z,101208.68
2018-08-24T14:56:02.153Z,101212.75
2018-08-24T14:58:31.147Z,101210.66
2018-08-24T15:01:00.349Z,101205.95
2018-08-24T15:03:29.611Z,101202.37
2018-08-24T15:05:59.760Z,101202.00
2018-08-24T15:08:28.852Z,101198.55
2018-08-24T15:10:58.999Z,101204.59
2018-08-24T15:13:28.219Z,101195.34
2018-08-24T15:15:57.168Z,101206.20
2018-08-24T15:18:26.871Z,101210.89
2018-08-24T15:20:56.730Z,101202.25
2018-08-24T15:23:25.640Z,101200.53
2018-08-24T15:25:54.915Z,101199.78
2018-08-24T15:28:23.873Z,101199.91
2018-08-24T15:30:53.265Z,101184.98
2018-08-24T15:33:22.199Z,101188.44
2018-08-24T15:35:51.385Z,101197.45
2018-08-24T15:38:20.448Z,101196.84
2018-08-24T15:40:49.609Z,101196.97
2018-08-24T15:43:18.764Z,101203.98
2018-08-24T15:45:47.839Z,101199.53
2018-08-24T15:48:16.793Z,101200.53
2018-08-24T15:50:45.874Z,101207.44
2018-08-24T15:53:14.957Z,101200.15
2018-08-24T15:55:43.885Z,101195.22
2018-08-24T15:58:13.092Z,101199.06
2018-08-24T16:00:42.311Z,101193.02
2018-08-24T16:03:11.551Z,101184.36
2018-08-24T16:05:40.494Z,101192.27
2018-08-24T16:08:09.543Z,101191.39
2018-08-24T16:10:38.830Z,101195.22
2018-08-24T16:13:07.752Z,101183.01
2018-08-24T16:15:36.889Z,101191.53
2018-08-24T16:18:11.051Z,101184.36
2018-08-24T16:20:40.067Z,101183.24
2018-08-24T16:23:10.239Z,101177.81
2018-08-24T16:25:39.333Z,101175.35
2018-08-24T16:28:10.271Z,101175.46
2018-08-24T16:30:39.362Z,101166.59
2018-08-24T16:33:08.387Z,101163.52
2018-08-24T16:35:37.351Z,101162.77
2018-08-24T16:38:06.477Z,101165.84
2018-08-24T16:40:35.445Z,101155.61
2018-08-24T16:43:04.367Z,101153.02
2018-08-24T16:45:33.643Z,101156.86
2018-08-24T16:48:02.822Z,101152.52
2018-08-24T16:50:32.116Z,101158.08
2018-08-24T16:53:01.222Z,101154.39
2018-08-24T16:55:30.143Z,101150.20
2018-08-24T16:57:59.284Z,101149.95
2018-08-24T17:00:29.604Z,101140.81
2018-08-24T17:02:58.750Z,101156.73
2018-08-24T17:05:27.760Z,101145.26
2018-08-24T17:07:56.892Z,101139.08
2018-08-24T17:10:25.963Z,101138.84
2018-08-24T17:12:55.236Z,101125.73
2018-08-24T17:15:24.968Z,101121.92
2018-08-24T17:17:53.925Z,101127.00
2018-08-24T17:20:23.089Z,101117.98
2018-08-24T17:22:53.000Z,101118.61
2018-08-24T17:25:21.901Z,101115.75
2018-08-24T17:27:50.832Z,101115.39
2018-08-24T17:30:19.956Z,101101.81
2018-08-24T17:32:48.901Z,101100.22
2018-08-24T17:35:18.031Z,101111.33
2018-08-24T17:37:47.100Z,101099.70
2018-08-24T17:40:16.300Z,101094.91
2018-08-24T17:42:45.449Z,101091.19
2018-08-24T17:45:15.116Z,101093.16
2018-08-24T17:47:45.116Z,101084.05
2018-08-24T17:50:14.448Z,101087.85
2018-08-24T17:52:43.523Z,101081.69
2018-08-24T17:55:12.634Z,101077.84
2018-08-24T17:57:41.876Z,101077.61
2018-08-24T18:00:11.817Z,101075.39
2018-08-24T18:02:40.716Z,101073.66
2018-08-24T18:05:09.881Z,101065.17
2018-08-24T18:07:38.860Z,101073.77
2018-08-24T18:10:07.823Z,101078.34
2018-08-24T18:12:36.779Z,101068.61
2018-08-24T18:15:05.868Z,101055.30
2018-08-24T18:17:34.667Z,101064.68
2018-08-24T18:20:03.723Z,101059.75
2018-08-24T18:22:32.624Z,101053.95
2018-08-24T18:25:01.854Z,101050.27
2018-08-24T18:27:30.855Z,101049.25
2018-08-24T18:29:59.807Z,101044.80
2018-08-24T18:32:28.683Z,101011.79
2018-08-24T18:35:03.053Z,101048.86
2018-08-24T18:37:37.627Z,101046.16
2018-08-24T18:40:06.646Z,101038.64
2018-08-24T18:42:35.754Z,101035.81
2018-08-24T18:45:04.764Z,101034.34
2018-08-24T18:47:33.675Z,101038.30
2018-08-24T18:50:02.595Z,101033.84
2018-08-24T18:52:31.560Z,101032.48
2018-08-24T18:55:01.724Z,101033.22
2018-08-24T18:57:30.935Z,101035.94
2018-08-24T18:59:59.937Z,101026.09
2018-08-24T19:02:28.879Z,101023.77
2018-08-24T19:05:01.441Z,101017.69
2018-08-24T19:07:36.404Z,101013.89
2018-08-24T19:10:05.632Z,101015.36
2018-08-24T19:12:34.644Z,101010.67
2018-08-24T19:15:03.646Z,101009.55
2018-08-24T19:17:37.735Z,101005.76
2018-08-24T19:20:12.039Z,101005.02
2018-08-24T19:22:45.149Z,101010.56
2018-08-24T19:25:14.243Z,101003.40
2018-08-24T19:27:48.483Z,101014.62
2018-08-24T19:30:22.742Z,101011.29
2018-08-24T19:32:51.780Z,101014.97
2018-08-24T19:35:20.848Z,101012.64
2018-08-24T19:37:49.966Z,101000.44
2018-08-24T19:40:24.170Z,101010.66
2018-08-24T19:42:53.103Z,100997.62
2018-08-24T19:45:22.051Z,101000.56
2018-08-24T19:47:56.332Z,100990.57
2018-08-24T19:50:25.332Z,100985.41
2018-08-24T19:52:54.305Z,100973.84
2018-08-24T19:55:23.277Z,100972.60
2018-08-24T19:57:57.388Z,100967.92
2018-08-24T20:00:26.321Z,100969.85
2018-08-24T20:02:55.256Z,100964.47
2018-08-24T20:05:24.296Z,100974.58
2018-08-24T20:07:58.493Z,100970.52
2018-08-24T20:10:27.476Z,100949.80
2018-08-24T20:12:56.480Z,100955.34
2018-08-24T20:15:30.946Z,100956.06
2018-08-24T20:17:59.896Z,100945.73
2018-08-24T20:20:28.949Z,100937.30
2018-08-24T20:23:03.330Z,100946.58
2018-08-24T20:25:32.362Z,100948.44
2018-08-24T20:28:01.315Z,100947.28
2018-08-24T20:30:30.263Z,100948.72
2018-08-24T20:32:59.550Z,100949.22
2018-08-24T20:35:28.483Z,100952.69
2018-08-24T20:37:57.509Z,100943.95
2018-08-24T20:40:26.441Z,100946.89
2018-08-24T20:42:55.386Z,100944.55
2018-08-24T20:45:24.343Z,100947.03
2018-08-24T20:47:53.238Z,100944.95
2018-08-24T20:50:22.184Z,100947.75
2018-08-24T20:52:51.100Z,100971.14
2018-08-24T20:55:20.148Z,101006.19
2018-08-24T20:57:49.117Z,101014.28
2018-08-24T21:00:18.014Z,101045.70
2018-08-24T21:02:46.946Z,101066.22
2018-08-24T21:05:16.194Z,101037.45
2018-08-24T21:07:45.262Z,101033.70
2018-08-24T21:10:14.259Z,101025.02
2018-08-24T21:12:43.235Z,101020.81
2018-08-24T21:15:12.166Z,101021.42
2018-08-24T21:17:41.097Z,101047.02
2018-08-24T21:20:10.002Z,101047.63
2018-08-24T21:22:38.972Z,101068.05
2018-08-24T21:25:08.303Z,101067.62
2018-08-24T21:27:37.238Z,101051.74
2018-08-24T21:30:06.277Z,101040.86
2018-08-24T21:32:35.327Z,101041.88
2018-08-24T21:35:04.426Z,101030.49
2018-08-24T21:37:33.424Z,101024.92
2018-08-24T21:40:02.323Z,101021.17
2018-08-24T21:42:31.247Z,101019.21
2018-08-24T21:45:00.265Z,101014.92
2018-08-24T21:47:29.149Z,101002.38
2018-08-24T21:49:58.075Z,101000.71
2018-08-24T21:52:26.995Z,100989.97
2018-08-24T21:54:55.999Z,100989.27
2018-08-24T21:57:24.963Z,100982.77
2018-08-24T21:59:53.872Z,100979.77
2018-08-24T22:02:22.777Z,100976.47
2018-08-24T22:04:51.751Z,100966.91
2018-08-24T22:07:20.727Z,100964.11
2018-08-24T22:09:49.680Z,100959.09
2018-08-24T22:12:18.635Z,100954.01
2018-08-24T22:14:47.542Z,100948.89
2018-08-24T22:17:16.472Z,100945.59
2018-08-24T22:19:45.373Z,100930.45
2018-08-24T22:22:14.268Z,100927.75
2018-08-24T22:24:43.361Z,100914.74
2018-08-24T22:27:12.292Z,100909.94
2018-08-24T22:29:41.225Z,100906.74
2018-08-24T22:32:10.144Z,100903.59
2018-08-24T22:34:39.130Z,100892.13
2018-08-24T22:37:08.056Z,100887.84
2018-08-24T22:39:37.010Z,100883.66
2018-08-24T22:42:05.944Z,100875.98
2018-08-24T22:44:35.216Z,100883.08
2018-08-24T22:47:04.648Z,100887.12
2018-08-24T22:49:33.895Z,100891.21
2018-08-24T22:52:03.122Z,100879.73
2018-08-24T22:54:32.234Z,100877.45
2018-08-24T22:57:01.424Z,100871.42
2018-08-24T22:59:30.566Z,100865.45
2018-08-24T23:01:59.712Z,100876.91
2018-08-24T23:04:28.828Z,100874.84
2018-08-24T23:06:57.925Z,100872.16
2018-08-24T23:09:27.086Z,100867.18
2018-08-24T23:11:56.217Z,100859.97
2018-08-24T23:14:25.437Z,100856.31
2018-08-24T23:16:54.500Z,100847.16
2018-08-24T23:19:23.697Z,100827.96
2018-08-24T23:21:52.843Z,100830.05
2018-08-24T23:24:22.014Z,100824.08
2018-08-24T23:26:51.102Z,100824.67
2018-08-24T23:29:20.270Z,100818.12
2018-08-24T23:31:49.394Z,100816.03
2018-08-24T23:34:18.469Z,100815.33
2018-08-24T23:36:47.608Z,100819.35
2018-08-24T23:39:16.754Z,100816.23
2018-08-24T23:41:45.845Z,100810.11
2018-08-24T23:44:14.984Z,100805.94
2018-08-24T23:46:44.074Z,100816.55
2018-08-24T23:49:13.176Z,100838.08
2018-08-24T23:51:42.348Z,100855.09
2018-08-24T23:54:11.388Z,100858.92
2018-08-24T23:56:40.552Z,100868.16
2018-08-24T23:59:09.652Z,100865.80
